createdAt,value
2018-05-04T00:01:52.505Z,101446.40
2018-05-04T00:04:20.002Z,101458.41
2018-05-04T00:06:47.477Z,101454.26
2018-05-04T00:09:15.040Z,101454.34
2018-05-04T00:11:42.591Z,101458.11
2018-05-04T00:14:10.032Z,101466.44
2018-05-04T00:16:37.483Z,101468.73
2018-05-04T00:19:04.959Z,101468.42
2018-05-04T00:21:32.415Z,101463.22
2018-05-04T00:23:59.873Z,101466.14
2018-05-04T00:26:27.347Z,101470.02
2018-05-04T00:28:54.798Z,101471.47
2018-05-04T00:31:22.284Z,101475.93
2018-05-04T00:33:49.753Z,101468.02
2018-05-04T00:36:17.246Z,101468.02
2018-05-04T00:38:44.741Z,101466.14
2018-05-04T00:41:12.250Z,101474.06
2018-05-04T00:43:39.721Z,101480.32
2018-05-04T00:46:07.203Z,101481.05
2018-05-04T00:48:34.654Z,101490.32
2018-05-04T00:51:02.099Z,101492.70
2018-05-04T00:53:29.550Z,101494.05
2018-05-04T00:55:57.008Z,101495.20
2018-05-04T00:58:24.582Z,101498.95
2018-05-04T01:00:52.058Z,101501.47
2018-05-04T01:03:19.506Z,101507.30
2018-05-04T01:05:47.090Z,101507.09
2018-05-04T01:08:14.621Z,101503.33
2018-05-04T01:10:42.065Z,101506.96
2018-05-04T01:13:09.506Z,101507.38
2018-05-04T01:15:37.105Z,101513.84
2018-05-04T01:18:04.641Z,101510.09
2018-05-04T01:23:06.004Z,101511.00
2018-05-04T01:25:33.491Z,101510.90
2018-05-04T01:28:01.078Z,101513.91
2018-05-04T01:30:28.581Z,101513.69
2018-05-04T01:32:56.031Z,101516.10
2018-05-04T01:35:23.507Z,101524.34
2018-05-04T01:37:51.005Z,101521.41
2018-05-04T01:40:18.462Z,101524.22
2018-05-04T01:42:45.905Z,101530.06
2018-05-04T01:45:13.456Z,101532.77
2018-05-04T01:47:40.932Z,101532.44
2018-05-04T01:50:08.444Z,101532.11
2018-05-04T01:52:36.008Z,101537.86
2018-05-04T01:55:03.486Z,101540.56
2018-05-04T01:57:30.943Z,101542.63
2018-05-04T01:59:58.468Z,101543.98
2018-05-04T02:02:25.951Z,101539.38
2018-05-04T02:04:53.435Z,101542.41
2018-05-04T02:07:20.955Z,101539.48
2018-05-04T02:09:48.436Z,101542.58
2018-05-04T02:12:15.977Z,101543.21
2018-05-04T02:14:43.451Z,101540.06
2018-05-04T02:17:11.018Z,101533.81
2018-05-04T02:19:38.468Z,101531.22
2018-05-04T02:22:06.055Z,101540.44
2018-05-04T02:24:33.535Z,101539.91
2018-05-04T02:27:01.017Z,101544.98
2018-05-04T02:29:28.545Z,101542.42
2018-05-04T02:31:55.995Z,101542.31
2018-05-04T02:34:23.496Z,101545.44
2018-05-04T02:36:50.960Z,101545.44
2018-05-04T02:39:18.423Z,101542.09
2018-05-04T02:41:45.997Z,101544.56
2018-05-04T02:44:13.523Z,101550.05
2018-05-04T02:46:40.987Z,101544.23
2018-05-04T02:49:08.537Z,101560.05
2018-05-04T02:51:36.009Z,101555.13
2018-05-04T02:54:03.561Z,101549.53
2018-05-04T02:56:31.117Z,101550.58
2018-05-04T02:58:58.633Z,101556.28
2018-05-04T03:01:26.164Z,101550.95
2018-05-04T03:03:53.649Z,101557.41
2018-05-04T03:06:21.142Z,101551.25
2018-05-04T03:08:48.620Z,101552.91
2018-05-04T03:11:16.110Z,101546.13
2018-05-04T03:13:43.656Z,101548.73
2018-05-04T03:16:11.177Z,101556.84
2018-05-04T03:18:38.654Z,101557.89
2018-05-04T03:21:06.127Z,101557.14
2018-05-04T03:23:33.677Z,101557.55
2018-05-04T03:26:01.128Z,101561.20
2018-05-04T03:28:28.607Z,101559.13
2018-05-04T03:30:56.060Z,101562.14
2018-05-04T03:33:23.528Z,101558.20
2018-05-04T03:35:51.000Z,101561.36
2018-05-04T03:38:18.481Z,101564.06
2018-05-04T03:40:46.801Z,101562.94
2018-05-04T03:43:14.338Z,101563.55
2018-05-04T03:45:41.883Z,101556.89
2018-05-04T03:48:09.363Z,101556.36
2018-05-04T03:50:36.857Z,101555.42
2018-05-04T03:53:04.397Z,101552.53
2018-05-04T03:55:31.883Z,101558.31
2018-05-04T03:58:11.299Z,101555.00
2018-05-04T04:00:50.520Z,101555.53
2018-05-04T04:03:29.799Z,101552.83
2018-05-04T04:05:57.256Z,101554.07
2018-05-04T04:08:24.728Z,101550.47
2018-05-04T04:10:52.213Z,101547.47
2018-05-04T04:13:19.665Z,101547.61
2018-05-04T04:15:47.108Z,101541.22
2018-05-04T04:18:14.580Z,101542.72
2018-05-04T04:20:42.060Z,101541.00
2018-05-04T04:23:09.564Z,101543.51
2018-05-04T04:25:37.071Z,101546.22
2018-05-04T04:28:04.532Z,101532.39
2018-05-04T04:30:31.988Z,101537.73
2018-05-04T04:32:59.480Z,101542.37
2018-05-04T04:35:26.966Z,101546.44
2018-05-04T04:37:54.505Z,101540.80
2018-05-04T04:40:21.973Z,101534.86
2018-05-04T04:42:49.466Z,101537.86
2018-05-04T04:45:16.955Z,101538.94
2018-05-04T04:47:44.432Z,101546.66
2018-05-04T04:50:11.899Z,101552.02
2018-05-04T04:52:39.376Z,101548.11
2018-05-04T04:55:06.849Z,101556.41
2018-05-04T04:57:34.447Z,101556.00
2018-05-04T05:00:01.925Z,101559.81
2018-05-04T05:02:29.404Z,101561.02
2018-05-04T05:04:56.923Z,101566.58
2018-05-04T05:07:24.383Z,101571.63
2018-05-04T05:09:51.868Z,101569.53
2018-05-04T05:12:19.395Z,101571.95
2018-05-04T05:14:46.895Z,101572.28
2018-05-04T05:17:14.341Z,101575.33
2018-05-04T05:19:41.853Z,101586.58
2018-05-04T05:22:09.352Z,101583.02
2018-05-04T05:24:36.839Z,101585.95
2018-05-04T05:27:04.325Z,101583.97
2018-05-04T05:29:31.804Z,101584.90
2018-05-04T05:31:59.276Z,101587.20
2018-05-04T05:34:26.801Z,101586.77
2018-05-04T05:36:54.271Z,101595.63
2018-05-04T05:39:21.721Z,101591.86
2018-05-04T05:41:49.238Z,101592.09
2018-05-04T05:44:16.844Z,101598.75
2018-05-04T05:46:44.402Z,101598.41
2018-05-04T05:49:11.887Z,101602.13
2018-05-04T05:51:39.332Z,101606.37
2018-05-04T05:54:06.883Z,101607.73
2018-05-04T05:56:34.366Z,101615.75
2018-05-04T05:59:01.863Z,101620.44
2018-05-04T06:01:29.507Z,101621.31
2018-05-04T06:03:56.983Z,101615.59
2018-05-04T06:06:24.448Z,101623.48
2018-05-04T06:08:52.018Z,101628.99
2018-05-04T06:11:19.527Z,101635.39
2018-05-04T06:13:46.994Z,101637.89
2018-05-04T06:16:14.490Z,101629.86
2018-05-04T06:18:41.958Z,101632.88
2018-05-04T06:21:09.465Z,101636.52
2018-05-04T06:23:37.046Z,101635.14
2018-05-04T06:26:04.540Z,101635.03
2018-05-04T06:28:32.301Z,101635.37
2018-05-04T06:30:59.821Z,101639.78
2018-05-04T06:33:27.277Z,101646.45
2018-05-04T06:35:54.821Z,101643.06
2018-05-04T06:38:22.335Z,101646.00
2018-05-04T06:40:49.802Z,101645.33
2018-05-04T06:43:17.349Z,101644.42
2018-05-04T06:45:44.898Z,101644.17
2018-05-04T06:48:12.417Z,101653.72
2018-05-04T06:50:39.932Z,101657.13
2018-05-04T06:53:07.395Z,101652.42
2018-05-04T06:55:34.847Z,101659.54
2018-05-04T06:58:02.316Z,101664.30
2018-05-04T07:00:29.792Z,101664.20
2018-05-04T07:02:57.268Z,101673.47
2018-05-04T07:05:24.736Z,101676.39
2018-05-04T07:07:52.275Z,101670.02
2018-05-04T07:10:19.811Z,101675.03
2018-05-04T07:12:47.290Z,101676.42
2018-05-04T07:15:14.797Z,101668.75
2018-05-04T07:17:42.280Z,101675.70
2018-05-04T07:20:09.765Z,101679.47
2018-05-04T07:22:37.231Z,101683.34
2018-05-04T07:25:04.722Z,101677.63
2018-05-04T07:27:32.283Z,101676.16
2018-05-04T07:29:59.748Z,101684.83
2018-05-04T07:32:27.308Z,101683.05
2018-05-04T07:34:54.812Z,101684.30
2018-05-04T07:37:22.306Z,101686.42
2018-05-04T07:39:49.797Z,101685.04
2018-05-04T07:42:17.322Z,101694.19
2018-05-04T07:44:44.825Z,101686.97
2018-05-04T07:47:12.300Z,101690.78
2018-05-04T07:49:39.781Z,101687.37
2018-05-04T07:52:07.240Z,101681.31
2018-05-04T07:54:34.683Z,101681.11
2018-05-04T07:57:02.201Z,101684.30
2018-05-04T07:59:29.661Z,101675.30
2018-05-04T08:01:57.118Z,101667.92
2018-05-04T08:04:24.641Z,101678.85
2018-05-04T08:06:52.130Z,101683.83
2018-05-04T08:09:19.649Z,101678.24
2018-05-04T08:11:47.103Z,101684.59
2018-05-04T08:14:14.556Z,101684.45
2018-05-04T08:16:42.057Z,101685.66
2018-05-04T08:19:09.607Z,101682.32
2018-05-04T08:21:37.060Z,101681.83
2018-05-04T08:24:04.602Z,101680.38
2018-05-04T08:26:32.092Z,101684.14
2018-05-04T08:28:59.545Z,101686.27
2018-05-04T08:31:27.037Z,101689.16
2018-05-04T08:33:54.515Z,101687.13
2018-05-04T08:36:22.093Z,101690.00
2018-05-04T08:38:49.614Z,101685.13
2018-05-04T08:41:17.062Z,101684.25
2018-05-04T08:43:44.604Z,101674.22
2018-05-04T08:46:12.067Z,101677.80
2018-05-04T08:48:39.556Z,101678.02
2018-05-04T08:51:07.240Z,101676.89
2018-05-04T08:53:34.704Z,101678.50
2018-05-04T08:56:02.191Z,101683.24
2018-05-04T08:58:29.703Z,101676.30
2018-05-04T09:00:57.153Z,101672.37
2018-05-04T09:03:24.632Z,101672.42
2018-05-04T09:05:52.163Z,101676.59
2018-05-04T09:08:19.638Z,101673.84
2018-05-04T09:10:47.123Z,101682.38
2018-05-04T09:13:14.601Z,101678.27
2018-05-04T09:15:42.103Z,101674.44
2018-05-04T09:18:09.600Z,101670.42
2018-05-04T09:20:37.060Z,101666.31
2018-05-04T09:23:04.565Z,101662.89
2018-05-04T09:25:32.019Z,101668.66
2018-05-04T09:27:59.528Z,101667.55
2018-05-04T09:30:26.985Z,101668.00
2018-05-04T09:32:54.489Z,101666.35
2018-05-04T09:35:21.980Z,101660.46
2018-05-04T09:37:49.459Z,101655.88
2018-05-04T09:40:16.937Z,101662.17
2018-05-04T09:42:44.576Z,101662.00
2018-05-04T09:45:12.068Z,101668.31
2018-05-04T09:47:39.551Z,101674.53
2018-05-04T09:50:06.995Z,101669.23
2018-05-04T09:52:34.504Z,101670.87
2018-05-04T09:55:02.064Z,101670.09
2018-05-04T09:57:29.598Z,101667.01
2018-05-04T09:59:57.167Z,101664.41
2018-05-04T10:02:25.215Z,101669.83
2018-05-04T10:04:52.739Z,101660.44
2018-05-04T10:07:20.357Z,101661.80
2018-05-04T10:09:47.837Z,101659.11
2018-05-04T10:12:15.286Z,101659.14
2018-05-04T10:14:42.829Z,101657.29
2018-05-04T10:17:10.280Z,101655.83
2018-05-04T10:19:37.765Z,101658.52
2018-05-04T10:22:05.273Z,101657.56
2018-05-04T10:24:32.796Z,101660.80
2018-05-04T10:27:00.261Z,101658.20
2018-05-04T10:29:27.761Z,101660.56
2018-05-04T10:31:55.231Z,101659.63
2018-05-04T10:34:22.723Z,101655.56
2018-05-04T10:36:50.203Z,101661.53
2018-05-04T10:39:17.684Z,101651.21
2018-05-04T10:41:45.165Z,101655.89
2018-05-04T10:44:12.689Z,101646.39
2018-05-04T10:46:40.180Z,101650.78
2018-05-04T10:49:07.670Z,101650.78
2018-05-04T10:51:35.148Z,101656.33
2018-05-04T10:54:02.679Z,101652.70
2018-05-04T10:56:31.179Z,101658.24
2018-05-04T10:58:58.685Z,101649.56
2018-05-04T11:01:26.200Z,101648.59
2018-05-04T11:03:53.694Z,101643.82
2018-05-04T11:06:21.156Z,101643.70
2018-05-04T11:08:48.721Z,101643.06
2018-05-04T11:11:16.257Z,101644.98
2018-05-04T11:13:43.632Z,101643.31
2018-05-04T11:16:11.106Z,101632.16
2018-05-04T11:18:38.569Z,101636.91
2018-05-04T11:21:06.114Z,101630.95
2018-05-04T11:23:33.641Z,101631.67
2018-05-04T11:26:01.147Z,101628.83
2018-05-04T11:28:28.598Z,101630.41
2018-05-04T11:30:56.182Z,101634.00
2018-05-04T11:33:23.697Z,101629.30
2018-05-04T11:35:51.236Z,101637.19
2018-05-04T11:38:18.711Z,101623.64
2018-05-04T11:40:46.190Z,101624.16
2018-05-04T11:43:13.648Z,101637.95
2018-05-04T11:45:41.128Z,101624.02
2018-05-04T11:48:08.670Z,101629.69
2018-05-04T11:50:36.127Z,101625.72
2018-05-04T11:53:03.728Z,101633.69
2018-05-04T11:55:31.280Z,101636.53
2018-05-04T11:57:58.857Z,101633.19
2018-05-04T12:00:26.361Z,101632.44
2018-05-04T12:02:53.841Z,101631.34
2018-05-04T12:05:21.303Z,101634.28
2018-05-04T12:07:48.838Z,101632.42
2018-05-04T12:10:16.389Z,101631.29
2018-05-04T12:12:43.901Z,101627.15
2018-05-04T12:15:11.394Z,101637.55
2018-05-04T12:17:38.949Z,101630.44
2018-05-04T12:20:06.442Z,101629.43
2018-05-04T12:22:33.912Z,101631.09
2018-05-04T12:25:01.395Z,101632.23
2018-05-04T12:27:28.848Z,101635.80
2018-05-04T12:29:56.315Z,101636.02
2018-05-04T12:32:23.801Z,101633.84
2018-05-04T12:34:51.291Z,101630.65
2018-05-04T12:37:18.778Z,101634.90
2018-05-04T12:39:46.287Z,101626.87
2018-05-04T12:42:13.794Z,101630.58
2018-05-04T12:44:41.299Z,101628.47
2018-05-04T12:47:08.787Z,101621.98
2018-05-04T12:49:36.398Z,101616.04
2018-05-04T12:52:03.876Z,101623.23
2018-05-04T12:54:31.318Z,101623.09
2018-05-04T12:56:58.804Z,101623.00
2018-05-04T12:59:26.355Z,101632.78
2018-05-04T13:01:53.834Z,101622.66
2018-05-04T13:04:21.447Z,101628.23
2018-05-04T13:06:49.005Z,101625.64
2018-05-04T13:09:16.500Z,101620.80
2018-05-04T13:11:44.035Z,101618.64
2018-05-04T13:14:11.574Z,101617.33
2018-05-04T13:16:39.144Z,101623.14
2018-05-04T13:19:06.599Z,101624.52
2018-05-04T13:21:34.168Z,101613.05
2018-05-04T13:24:01.677Z,101611.27
2018-05-04T13:26:29.144Z,101610.39
2018-05-04T13:28:56.975Z,101611.55
2018-05-04T13:31:24.503Z,101602.29
2018-05-04T13:33:51.984Z,101593.33
2018-05-04T13:36:19.735Z,101596.39
2018-05-04T13:38:47.283Z,101603.19
2018-05-04T13:41:14.801Z,101592.92
2018-05-04T13:43:42.286Z,101593.44
2018-05-04T13:46:09.732Z,101588.42
2018-05-04T13:48:37.549Z,101589.53
2018-05-04T13:51:05.178Z,101586.72
2018-05-04T13:53:32.627Z,101585.22
2018-05-04T13:56:00.072Z,101584.16
2018-05-04T13:58:27.548Z,101577.47
2018-05-04T14:00:55.020Z,101571.16
2018-05-04T14:03:22.504Z,101575.00
2018-05-04T14:05:50.013Z,101577.90
2018-05-04T14:08:17.463Z,101585.56
2018-05-04T14:10:44.941Z,101584.09
2018-05-04T14:13:12.468Z,101577.27
2018-05-04T14:15:39.958Z,101577.72
2018-05-04T14:18:07.441Z,101583.31
2018-05-04T14:20:34.919Z,101580.45
2018-05-04T14:23:02.403Z,101580.62
2018-05-04T14:25:29.901Z,101578.28
2018-05-04T14:27:57.417Z,101582.06
2018-05-04T14:30:24.925Z,101583.84
2018-05-04T14:32:52.408Z,101587.50
2018-05-04T14:35:19.914Z,101586.95
2018-05-04T14:37:47.401Z,101588.08
2018-05-04T14:40:14.861Z,101594.12
2018-05-04T14:42:42.404Z,101587.45
2018-05-04T14:45:09.800Z,101589.69
2018-05-04T14:47:37.295Z,101586.14
2018-05-04T14:50:04.837Z,101579.04
2018-05-04T14:52:32.343Z,101580.58
2018-05-04T14:54:59.838Z,101577.02
2018-05-04T14:57:27.347Z,101577.99
2018-05-04T14:59:54.842Z,101575.91
2018-05-04T15:02:22.303Z,101576.92
2018-05-04T15:04:49.884Z,101580.45
2018-05-04T15:07:17.361Z,101579.86
2018-05-04T15:09:44.833Z,101581.38
2018-05-04T15:12:12.296Z,101576.14
2018-05-04T15:14:39.824Z,101569.95
2018-05-04T15:17:07.273Z,101586.28
2018-05-04T15:19:34.721Z,101588.81
2018-05-04T15:22:02.252Z,101591.39
2018-05-04T15:24:29.754Z,101589.94
2018-05-04T15:26:57.357Z,101597.47
2018-05-04T15:29:24.919Z,101595.31
2018-05-04T15:31:52.383Z,101593.78
2018-05-04T15:34:19.864Z,101594.47
2018-05-04T15:36:47.358Z,101595.10
2018-05-04T15:39:14.858Z,101605.86
2018-05-04T15:41:42.373Z,101599.59
2018-05-04T15:44:09.863Z,101601.53
2018-05-04T15:46:37.349Z,101597.67
2018-05-04T15:49:10.511Z,101597.81
2018-05-04T15:51:43.669Z,101604.88
2018-05-04T15:54:11.193Z,101598.05
2018-05-04T15:56:38.692Z,101606.84
2018-05-04T15:59:06.148Z,101601.72
2018-05-04T16:01:33.637Z,101605.09
2018-05-04T16:04:01.113Z,101603.68
2018-05-04T16:06:28.575Z,101600.05
2018-05-04T16:08:56.055Z,101600.77
2018-05-04T16:11:23.580Z,101599.98
2018-05-04T16:13:51.107Z,101602.44
2018-05-04T16:16:18.658Z,101595.58
2018-05-04T16:18:46.249Z,101601.30
2018-05-04T16:21:13.708Z,101602.32
2018-05-04T16:23:41.190Z,101596.57
2018-05-04T16:26:08.798Z,101602.53
2018-05-04T16:28:36.384Z,101598.31
2018-05-04T16:31:03.836Z,101591.92
2018-05-04T16:33:31.325Z,101593.58
2018-05-04T16:35:58.780Z,101592.11
2018-05-04T16:38:26.285Z,101603.25
2018-05-04T16:40:53.764Z,101600.39
2018-05-04T16:43:21.313Z,101599.04
2018-05-04T16:45:48.834Z,101596.56
2018-05-04T16:48:21.980Z,101597.69
2018-05-04T16:50:49.458Z,101597.67
2018-05-04T16:53:16.947Z,101603.41
2018-05-04T16:55:44.399Z,101598.97
2018-05-04T16:58:11.892Z,101597.43
2018-05-04T17:00:39.361Z,101596.81
2018-05-04T17:03:06.917Z,101604.65
2018-05-04T17:05:34.401Z,101606.27
2018-05-04T17:08:01.928Z,101608.42
2018-05-04T17:10:29.331Z,101609.94
2018-05-04T17:12:56.817Z,101622.83
2018-05-04T17:15:24.306Z,101618.78
2018-05-04T17:17:51.806Z,101624.52
2018-05-04T17:20:19.267Z,101619.27
2018-05-04T17:22:46.779Z,101622.28
2018-05-04T17:25:15.236Z,101631.46
2018-05-04T17:27:42.727Z,101632.69
2018-05-04T17:30:10.204Z,101633.06
2018-05-04T17:32:37.649Z,101642.44
2018-05-04T17:35:05.128Z,101639.98
2018-05-04T17:37:32.634Z,101636.14
2018-05-04T17:40:00.122Z,101647.47
2018-05-04T17:42:27.621Z,101651.71
2018-05-04T17:44:55.151Z,101649.48
2018-05-04T17:47:22.682Z,101649.39
2018-05-04T17:49:50.149Z,101654.19
2018-05-04T17:52:17.635Z,101657.13
2018-05-04T17:54:45.093Z,101657.22
2018-05-04T17:57:12.540Z,101656.77
2018-05-04T17:59:40.066Z,101657.10
2018-05-04T18:02:07.520Z,101658.20
2018-05-04T18:04:35.005Z,101667.23
2018-05-04T18:07:02.547Z,101671.11
2018-05-04T18:09:30.001Z,101666.69
2018-05-04T18:11:57.585Z,101669.47
2018-05-04T18:14:25.055Z,101673.53
2018-05-04T18:16:52.506Z,101676.35
2018-05-04T18:19:19.985Z,101678.58
2018-05-04T18:21:47.472Z,101680.95
2018-05-04T18:24:15.049Z,101684.13
2018-05-04T18:26:42.512Z,101680.75
2018-05-04T18:29:09.988Z,101676.13
2018-05-04T18:31:37.519Z,101671.44
2018-05-04T18:34:04.992Z,101675.72
2018-05-04T18:36:32.464Z,101681.50
2018-05-04T18:38:59.939Z,101678.53
2018-05-04T18:41:27.450Z,101679.79
2018-05-04T18:43:54.948Z,101684.52
2018-05-04T18:46:22.433Z,101688.88
2018-05-04T18:48:49.912Z,101693.15
2018-05-04T18:51:17.483Z,101699.27
2018-05-04T18:53:44.928Z,101703.33
2018-05-04T18:56:12.459Z,101704.80
2018-05-04T18:58:39.914Z,101714.02
2018-05-04T19:01:07.476Z,101720.38
2018-05-04T19:03:34.947Z,101718.83
2018-05-04T19:06:02.432Z,101725.48
2018-05-04T19:08:29.884Z,101728.91
2018-05-04T19:10:57.359Z,101735.96
2018-05-04T19:13:24.822Z,101731.67
2018-05-04T19:15:52.308Z,101740.12
2018-05-04T19:18:19.853Z,101742.28
2018-05-04T19:20:47.309Z,101744.89
2018-05-04T19:23:14.809Z,101747.17
2018-05-04T19:25:42.304Z,101752.91
2018-05-04T19:28:09.849Z,101753.62
2018-05-04T19:30:37.365Z,101759.44
2018-05-04T19:33:04.889Z,101762.06
2018-05-04T19:35:32.385Z,101761.63
2018-05-04T19:37:59.835Z,101766.82
2018-05-04T19:40:27.363Z,101756.30
2018-05-04T19:42:54.897Z,101774.05
2018-05-04T19:45:22.355Z,101775.32
2018-05-04T19:47:49.913Z,101777.17
2018-05-04T19:50:17.409Z,101786.00
2018-05-04T19:52:44.975Z,101784.80
2018-05-04T19:55:12.531Z,101787.90
2018-05-04T19:57:40.002Z,101792.46
2018-05-04T20:00:07.489Z,101794.73
2018-05-04T20:02:35.012Z,101793.31
2018-05-04T20:05:02.496Z,101801.36
2018-05-04T20:07:30.869Z,101800.05
2018-05-04T20:09:58.506Z,101804.72
2018-05-04T20:12:26.024Z,101809.05
2018-05-04T20:14:53.513Z,101805.84
2018-05-04T20:17:23.686Z,101810.17
2018-05-04T20:19:52.713Z,101816.58
2018-05-04T20:22:21.764Z,101819.42
2018-05-04T20:24:50.965Z,101821.92
2018-05-04T20:27:21.143Z,101823.32
2018-05-04T20:29:50.524Z,101816.13
2018-05-04T20:32:20.244Z,101829.21
2018-05-04T20:34:49.310Z,101830.22
2018-05-04T20:37:19.284Z,101830.22
2018-05-04T20:39:49.253Z,101833.80
2018-05-04T20:42:19.716Z,101826.94
2018-05-04T20:44:50.194Z,101837.28
2018-05-04T20:47:19.631Z,101838.97
2018-05-04T20:49:50.316Z,101845.70
2018-05-04T20:52:19.395Z,101843.66
2018-05-04T20:54:49.112Z,101840.86
2018-05-04T20:57:17.913Z,101847.56
2018-05-04T20:59:46.813Z,101859.39
2018-05-04T21:02:15.944Z,101861.80
2018-05-04T21:04:45.314Z,101853.03
2018-05-04T21:07:14.499Z,101856.60
2018-05-04T21:09:44.137Z,101855.05
2018-05-04T21:12:13.258Z,101854.86
2018-05-04T21:14:42.398Z,101860.49
2018-05-04T21:17:11.791Z,101855.28
2018-05-04T21:19:40.895Z,101855.82
2018-05-04T21:22:10.140Z,101860.53
2018-05-04T21:24:39.745Z,101861.27
2018-05-04T21:27:08.924Z,101861.48
2018-05-04T21:29:38.258Z,101856.67
2018-05-04T21:32:07.539Z,101857.39
2018-05-04T21:34:36.289Z,101856.45
2018-05-04T21:37:05.380Z,101871.90
2018-05-04T21:39:34.811Z,101863.95
2018-05-04T21:42:04.034Z,101874.09
2018-05-04T21:44:33.006Z,101878.48
2018-05-04T21:47:01.533Z,101877.13
2018-05-04T21:49:30.923Z,101876.61
2018-05-04T21:52:00.565Z,101874.73
2018-05-04T21:54:29.052Z,101874.50
2018-05-04T21:56:57.548Z,101877.84
2018-05-04T21:59:25.109Z,101877.02
2018-05-04T22:01:54.161Z,101874.59
2018-05-04T22:04:22.811Z,101869.59
2018-05-04T22:06:51.882Z,101876.57
2018-05-04T22:09:20.634Z,101881.59
2018-05-04T22:11:48.272Z,101883.65
2018-05-04T22:14:17.625Z,101882.49
2018-05-04T22:16:47.112Z,101894.08
2018-05-04T22:19:16.388Z,101891.55
2018-05-04T22:21:45.833Z,101889.34
2018-05-04T22:24:15.019Z,101894.55
2018-05-04T22:26:43.953Z,101900.80
2018-05-04T22:29:13.188Z,101902.88
2018-05-04T22:31:42.064Z,101897.15
2018-05-04T22:34:11.041Z,101902.02
2018-05-04T22:36:40.106Z,101904.84
2018-05-04T22:39:09.026Z,101911.09
2018-05-04T22:41:37.785Z,101916.83
2018-05-04T22:44:07.031Z,101908.77
2018-05-04T22:46:36.204Z,101916.59
2018-05-04T22:49:05.317Z,101911.36
2018-05-04T22:51:34.691Z,101910.49
2018-05-04T22:54:03.557Z,101909.77
2018-05-04T22:56:32.895Z,101910.27
2018-05-04T22:59:02.230Z,101919.75
2018-05-04T23:01:31.052Z,101919.41
2018-05-04T23:04:00.195Z,101927.42
2018-05-04T23:06:29.511Z,101923.96
2018-05-04T23:08:58.525Z,101921.84
2018-05-04T23:11:27.575Z,101920.48
2018-05-04T23:13:56.820Z,101918.19
2018-05-04T23:16:25.770Z,101915.47
2018-05-04T23:18:55.480Z,101920.78
2018-05-04T23:21:24.535Z,101924.95
2018-05-04T23:23:53.057Z,101915.95
2018-05-04T23:26:22.185Z,101913.48
2018-05-04T23:28:51.225Z,101924.58
2018-05-04T23:31:20.228Z,101928.89
2018-05-04T23:33:49.595Z,101928.57
2018-05-04T23:36:18.636Z,101925.75
2018-05-04T23:38:47.713Z,101920.45
2018-05-04T23:41:17.176Z,101923.69
2018-05-04T23:43:46.399Z,101933.88
2018-05-04T23:46:15.673Z,101932.19
2018-05-04T23:48:44.586Z,101938.35
2018-05-04T23:51:13.594Z,101939.29
2018-05-04T23:53:42.740Z,101942.49
2018-05-04T23:56:11.639Z,101945.91
2018-05-04T23:58:41.090Z,101943.60
